Terminal Aerodrome Forecast
Issued by NWS Huntsville, AL

Home | Current Version | Previous Version | Text Only | Print | Product List | Glossary On
Versions: 1 2 3 4 5 6 7 8 9 10 11 12 13 14 15 16
000
FTUS44 KHUN 301120
TAFMSL
TAF
KMSL 301120Z 3012/0112 VRB04KT P6SM SCT100 BKN250
     FM301400 19009KT P6SM SCT040 BKN090
     FM301700 18010G15KT P6SM SCT035 BKN070
     FM301900 18014G22KT P6SM VCTS BKN035CB
      TEMPO 3019/3023 VRB20G30KT 3SM TSRA OVC020CB
     FM010000 19005KT P6SM VCSH SCT040 BKN100
      AMD NOT SKED=

USA.gov is the U.S. government's official web portal to all federal, state and local government web resources and services.